createdAt,value
2022-08-01T00:01:01.590Z,1.60
2022-08-01T00:03:29.421Z,1.87
2022-08-01T00:05:57.296Z,1.63
2022-08-01T00:08:25.189Z,1.60
2022-08-01T00:10:52.973Z,1.57
2022-08-01T00:13:20.868Z,1.70
2022-08-01T00:15:54.203Z,1.70
2022-08-01T00:18:23.734Z,1.70
2022-08-01T00:20:51.625Z,1.80
2022-08-01T00:23:19.581Z,1.87
2022-08-01T00:25:47.445Z,1.93
2022-08-01T00:28:15.344Z,1.40
2022-08-01T00:30:43.146Z,1.60
2022-08-01T00:33:11.052Z,1.97
2022-08-01T00:35:40.197Z,1.87
2022-08-01T00:38:08.162Z,1.60
2022-08-01T00:40:36.061Z,1.93
2022-08-01T00:43:04.113Z,1.73
2022-08-01T00:45:31.986Z,1.70
2022-08-01T00:47:59.787Z,2.30
2022-08-01T00:50:27.724Z,2.00
2022-08-01T00:52:57.601Z,2.60
2022-08-01T00:55:26.003Z,2.00
2022-08-01T00:58:05.420Z,1.77
2022-08-01T01:00:53.822Z,1.80
2022-08-01T01:03:38.121Z,1.80
2022-08-01T01:06:18.821Z,2.00
2022-08-01T01:08:55.517Z,1.97
2022-08-01T01:11:28.477Z,1.90
2022-08-01T01:14:02.009Z,1.53
2022-08-01T01:16:32.731Z,1.83
2022-08-01T01:19:06.128Z,1.43
2022-08-01T01:21:49.702Z,1.37
2022-08-01T01:24:30.029Z,1.50
2022-08-01T01:27:05.668Z,1.63
2022-08-01T01:29:59.950Z,1.70
2022-08-01T01:32:34.716Z,1.70
2022-08-01T01:35:06.831Z,2.00
2022-08-01T01:37:36.210Z,1.83
2022-08-01T01:40:05.628Z,1.57
2022-08-01T01:42:35.060Z,1.63
2022-08-01T01:45:07.285Z,1.50
2022-08-01T01:47:36.211Z,1.63
2022-08-01T01:50:07.471Z,1.80
2022-08-01T01:52:36.675Z,1.57
2022-08-01T01:55:09.054Z,1.70
2022-08-01T01:57:40.785Z,2.13
2022-08-01T02:00:13.170Z,1.80
2022-08-01T02:02:43.014Z,2.03
2022-08-01T02:05:13.278Z,1.90
2022-08-01T02:07:43.550Z,1.90
2022-08-01T02:10:13.188Z,2.03
2022-08-01T02:12:46.358Z,1.73
2022-08-01T02:15:17.217Z,1.87
2022-08-01T02:17:47.905Z,2.00
2022-08-01T02:20:17.147Z,1.70
2022-08-01T02:22:49.497Z,1.97
2022-08-01T02:25:22.661Z,2.10
2022-08-01T02:27:56.053Z,1.60
2022-08-01T02:30:27.905Z,1.83
2022-08-01T02:33:03.766Z,1.80
2022-08-01T02:35:35.496Z,1.90
2022-08-01T02:38:26.721Z,1.73
2022-08-01T02:40:58.272Z,1.77
2022-08-01T02:43:30.523Z,1.60
2022-08-01T02:46:04.387Z,1.53
2022-08-01T02:48:33.551Z,1.60
2022-08-01T02:51:04.992Z,1.83
2022-08-01T02:53:43.975Z,1.90
2022-08-01T02:56:15.308Z,1.97
2022-08-01T02:58:44.703Z,1.43
2022-08-01T03:01:17.242Z,1.70
2022-08-01T03:03:48.218Z,1.73
2022-08-01T03:06:18.674Z,1.50
2022-08-01T03:08:49.605Z,1.60
2022-08-01T03:11:17.626Z,1.87
2022-08-01T03:13:48.140Z,1.30
2022-08-01T03:16:18.803Z,1.63
2022-08-01T03:18:47.226Z,2.07
2022-08-01T03:21:16.167Z,1.83
2022-08-01T03:23:45.112Z,1.73
2022-08-01T03:26:13.296Z,1.90
2022-08-01T03:28:43.622Z,1.70
2022-08-01T03:31:12.517Z,2.10
2022-08-01T03:33:41.953Z,1.63
2022-08-01T03:36:12.483Z,1.80
2022-08-01T03:38:42.306Z,1.43
2022-08-01T03:41:14.861Z,1.80
2022-08-01T03:43:47.762Z,1.70
2022-08-01T03:46:20.855Z,2.00
2022-08-01T03:48:52.757Z,2.00
2022-08-01T03:51:23.167Z,2.07
2022-08-01T03:53:52.442Z,2.17
2022-08-01T03:56:21.466Z,2.13
2022-08-01T03:58:50.492Z,1.80
2022-08-01T04:01:19.820Z,1.73
2022-08-01T04:03:48.167Z,1.67
2022-08-01T04:06:18.234Z,2.00
2022-08-01T04:08:56.141Z,1.60
2022-08-01T04:11:25.778Z,2.27
2022-08-01T04:13:55.318Z,2.40
2022-08-01T04:16:24.009Z,2.00
2022-08-01T04:18:52.057Z,1.60
2022-08-01T04:21:31.585Z,1.87
2022-08-01T04:24:04.375Z,1.80
2022-08-01T04:26:34.040Z,1.90
2022-08-01T04:29:03.889Z,1.77
2022-08-01T04:31:33.257Z,2.00
2022-08-01T04:34:03.728Z,2.10
2022-08-01T04:36:36.991Z,2.10
2022-08-01T04:39:07.669Z,2.20
2022-08-01T04:41:36.760Z,2.50
2022-08-01T04:44:05.113Z,2.37
2022-08-01T04:46:35.662Z,2.00
2022-08-01T04:49:04.079Z,2.20
2022-08-01T04:51:33.292Z,1.87
2022-08-01T04:54:01.967Z,1.97
2022-08-01T04:56:29.788Z,2.00
2022-08-01T04:59:19.598Z,1.80
2022-08-01T05:01:51.275Z,1.67
2022-08-01T05:04:19.492Z,1.80
2022-08-01T05:06:48.729Z,2.33
2022-08-01T05:09:16.888Z,1.67
2022-08-01T05:11:44.772Z,2.20
2022-08-01T05:14:12.581Z,1.90
2022-08-01T05:16:40.439Z,1.50
2022-08-01T05:19:09.041Z,2.47
2022-08-01T05:21:36.973Z,2.20
2022-08-01T05:24:06.955Z,2.07
2022-08-01T05:26:34.970Z,1.97
2022-08-01T05:29:04.827Z,1.83
2022-08-01T05:31:35.009Z,1.70
2022-08-01T05:34:02.968Z,1.87
2022-08-01T05:36:30.971Z,1.70
2022-08-01T05:38:58.844Z,1.73
2022-08-01T05:41:28.411Z,2.13
2022-08-01T05:43:56.267Z,1.67
2022-08-01T05:46:27.509Z,1.70
2022-08-01T05:48:55.748Z,2.00
2022-08-01T05:51:23.717Z,1.80
2022-08-01T05:53:51.676Z,2.43
2022-08-01T05:56:19.509Z,2.00
2022-08-01T05:58:48.706Z,2.00
2022-08-01T06:01:16.625Z,2.00
2022-08-01T06:03:44.653Z,1.80
2022-08-01T06:06:12.710Z,2.30
2022-08-01T06:08:40.540Z,1.70
2022-08-01T06:11:08.595Z,2.03
2022-08-01T06:13:45.288Z,1.90
2022-08-01T06:16:18.509Z,1.90
2022-08-01T06:18:46.419Z,1.67
2022-08-01T06:21:14.248Z,2.07
2022-08-01T06:23:43.166Z,1.73
2022-08-01T06:26:11.266Z,1.87
2022-08-01T06:28:39.486Z,1.90
2022-08-01T06:31:07.562Z,1.80
2022-08-01T06:33:36.747Z,1.80
2022-08-01T06:36:05.110Z,1.80
2022-08-01T06:38:33.128Z,1.90
2022-08-01T06:41:00.958Z,2.00
2022-08-01T06:43:28.964Z,2.00
2022-08-01T06:45:56.822Z,1.90
2022-08-01T06:48:24.666Z,2.27
2022-08-01T06:51:08.763Z,1.70
2022-08-01T06:53:37.892Z,1.83
2022-08-01T06:56:06.681Z,2.10
2022-08-01T06:58:35.347Z,1.90
2022-08-01T07:01:04.989Z,2.10
2022-08-01T07:03:54.735Z,1.93
2022-08-01T07:06:23.002Z,2.33
2022-08-01T07:08:50.870Z,2.30
2022-08-01T07:11:19.237Z,2.17
2022-08-01T07:13:47.420Z,2.23
2022-08-01T07:16:15.871Z,2.23
2022-08-01T07:18:45.092Z,2.27
2022-08-01T07:21:38.849Z,2.00
2022-08-01T07:24:03.050Z,1.93
2022-08-01T07:26:41.365Z,2.30
2022-08-01T07:29:20.893Z,2.27
2022-08-01T07:31:48.793Z,2.20
2022-08-01T07:34:16.674Z,2.07
2022-08-01T07:36:44.708Z,2.57
2022-08-01T07:39:13.966Z,1.80
2022-08-01T07:41:53.584Z,2.10
2022-08-01T07:44:29.678Z,2.07
2022-08-01T07:46:57.536Z,1.97
2022-08-01T07:49:25.399Z,2.20
2022-08-01T07:52:03.390Z,2.30
2022-08-01T07:54:42.772Z,2.10
2022-08-01T07:57:10.626Z,1.93
2022-08-01T07:59:38.565Z,2.10
2022-08-01T08:02:07.041Z,2.40
2022-08-01T08:04:35.084Z,2.63
2022-08-01T08:07:03.277Z,2.07
2022-08-01T08:09:31.305Z,2.17
2022-08-01T08:12:08.855Z,2.20
2022-08-01T08:14:37.086Z,2.10
2022-08-01T08:17:05.078Z,2.30
2022-08-01T08:19:37.252Z,2.03
2022-08-01T08:22:09.268Z,2.33
2022-08-01T08:24:46.131Z,2.27
2022-08-01T08:27:16.738Z,2.33
2022-08-01T08:29:45.076Z,2.40
2022-08-01T08:32:13.317Z,2.23
2022-08-01T08:34:41.166Z,2.60
2022-08-01T08:37:09.620Z,2.40
2022-08-01T08:39:41.176Z,2.13
2022-08-01T08:42:11.195Z,2.00
2022-08-01T08:44:43.616Z,2.00
2022-08-01T08:47:19.082Z,2.40
2022-08-01T08:49:49.425Z,1.80
2022-08-01T08:52:19.248Z,2.13
2022-08-01T08:54:48.724Z,2.20
2022-08-01T08:57:17.199Z,2.40
2022-08-01T08:59:47.432Z,1.93
2022-08-01T09:02:15.552Z,2.00
2022-08-01T09:04:43.714Z,2.60
2022-08-01T09:07:12.664Z,2.20
2022-08-01T09:09:41.901Z,2.20
2022-08-01T09:12:10.849Z,1.83
2022-08-01T09:14:48.684Z,2.10
2022-08-01T09:17:17.308Z,2.33
2022-08-01T09:19:48.496Z,1.77
2022-08-01T09:22:19.560Z,1.90
2022-08-01T09:25:00.697Z,2.00
2022-08-01T09:27:28.909Z,1.80
2022-08-01T09:30:10.150Z,2.57
2022-08-01T09:32:54.161Z,1.70
2022-08-01T09:35:29.974Z,1.80
2022-08-01T09:38:14.157Z,1.87
2022-08-01T09:40:50.045Z,2.03
2022-08-01T09:43:19.147Z,1.83
2022-08-01T09:45:49.118Z,1.83
2022-08-01T09:48:19.097Z,1.40
2022-08-01T09:50:49.026Z,1.60
2022-08-01T09:53:24.539Z,1.50
2022-08-01T09:56:11.626Z,1.60
2022-08-01T09:58:57.808Z,1.70
2022-08-01T10:01:36.093Z,1.83
2022-08-01T10:04:09.965Z,1.67
2022-08-01T10:06:39.090Z,1.30
2022-08-01T10:09:07.258Z,1.90
2022-08-01T10:11:39.134Z,1.80
2022-08-01T10:14:08.388Z,1.60
2022-08-01T10:16:38.809Z,1.80
2022-08-01T10:19:14.567Z,1.50
2022-08-01T10:21:58.230Z,1.50
2022-08-01T10:24:29.917Z,1.60
2022-08-01T10:27:12.223Z,1.30
2022-08-01T10:30:04.545Z,1.30
2022-08-01T10:32:39.642Z,1.70
2022-08-01T10:35:14.936Z,1.30
2022-08-01T10:37:52.380Z,1.60
2022-08-01T10:40:36.964Z,1.40
2022-08-01T10:43:05.282Z,1.33
2022-08-01T10:45:34.300Z,1.60
2022-08-01T10:48:11.583Z,1.60
2022-08-01T10:50:43.538Z,1.40
2022-08-01T10:53:16.067Z,2.13
2022-08-01T10:55:53.360Z,1.20
2022-08-01T10:58:29.822Z,1.30
2022-08-01T11:01:19.740Z,1.93
2022-08-01T11:04:04.963Z,1.40
2022-08-01T11:06:43.292Z,1.90
2022-08-01T11:09:36.428Z,1.50
2022-08-01T11:12:13.330Z,1.40
2022-08-01T11:15:29.535Z,1.40
2022-08-01T11:18:01.134Z,1.10
2022-08-01T11:20:32.253Z,1.20
2022-08-01T11:23:18.105Z,1.80
2022-08-01T11:26:12.381Z,1.50
2022-08-01T11:28:54.416Z,1.20
2022-08-01T11:31:31.169Z,2.23
2022-08-01T11:34:06.266Z,1.47
2022-08-01T11:36:58.143Z,1.70
2022-08-01T11:39:23.913Z,1.30
2022-08-01T11:41:53.424Z,1.40
2022-08-01T11:44:26.603Z,1.10
2022-08-01T11:47:09.117Z,1.20
2022-08-01T11:50:00.445Z,1.30
2022-08-01T11:52:31.099Z,1.43
2022-08-01T11:55:00.413Z,1.30
2022-08-01T11:57:34.672Z,1.47
2022-08-01T12:00:08.809Z,1.40
2022-08-01T12:02:37.220Z,1.20
2022-08-01T12:05:08.742Z,1.50
2022-08-01T12:07:42.575Z,1.30
2022-08-01T12:10:12.897Z,1.27
2022-08-01T12:12:45.937Z,1.30
2022-08-01T12:15:15.045Z,1.20
2022-08-01T12:17:46.921Z,1.40
2022-08-01T12:20:30.083Z,1.30
2022-08-01T12:23:06.638Z,1.33
2022-08-01T12:25:35.318Z,1.33
2022-08-01T12:28:04.164Z,1.00
2022-08-01T12:30:36.027Z,1.30
2022-08-01T12:33:04.868Z,1.20
2022-08-01T12:35:33.371Z,1.20
2022-08-01T12:38:04.654Z,2.13
2022-08-01T12:40:34.242Z,1.50
2022-08-01T12:43:03.792Z,1.30
2022-08-01T12:45:36.100Z,1.10
2022-08-01T12:48:09.325Z,1.20
2022-08-01T12:50:39.949Z,1.30
2022-08-01T12:53:10.649Z,1.20
2022-08-01T12:55:59.230Z,0.90
2022-08-01T12:58:34.046Z,1.77
2022-08-01T13:01:06.366Z,1.20
2022-08-01T13:03:34.304Z,1.10
2022-08-01T13:06:02.703Z,1.00
2022-08-01T13:08:35.349Z,1.43
2022-08-01T13:11:06.148Z,1.57
2022-08-01T13:13:41.223Z,1.43
2022-08-01T13:16:12.475Z,1.17
2022-08-01T13:18:50.405Z,1.10
2022-08-01T13:21:19.988Z,1.40
2022-08-01T13:24:06.110Z,2.03
2022-08-01T13:26:41.578Z,1.90
2022-08-01T13:29:10.526Z,0.87
2022-08-01T13:31:40.027Z,1.40
2022-08-01T13:34:08.273Z,0.70
2022-08-01T13:36:36.742Z,0.80
2022-08-01T13:39:24.462Z,0.80
2022-08-01T13:41:53.198Z,0.80
2022-08-01T13:44:21.076Z,1.40
2022-08-01T13:46:51.475Z,1.27
2022-08-01T13:49:20.271Z,1.20
2022-08-01T13:51:51.427Z,0.87
2022-08-01T13:54:20.713Z,1.00
2022-08-01T13:56:48.638Z,0.70
2022-08-01T13:59:16.525Z,1.17
2022-08-01T14:01:44.603Z,0.90
2022-08-01T14:04:12.429Z,1.10
2022-08-01T14:06:40.457Z,1.07
2022-08-01T14:09:17.563Z,1.13
2022-08-01T14:11:47.849Z,1.10
2022-08-01T14:14:15.676Z,1.30
2022-08-01T14:16:45.629Z,1.00
2022-08-01T14:19:13.595Z,1.10
2022-08-01T14:21:41.428Z,1.10
2022-08-01T14:24:10.542Z,1.03
2022-08-01T14:26:38.337Z,1.10
2022-08-01T14:29:07.506Z,1.30
2022-08-01T14:31:35.387Z,1.40
2022-08-01T14:34:03.612Z,1.53
2022-08-01T14:36:32.440Z,1.40
2022-08-01T14:39:06.120Z,1.40
2022-08-01T14:41:34.693Z,1.97
2022-08-01T14:44:02.893Z,1.63
2022-08-01T14:46:34.022Z,1.80
2022-08-01T14:49:02.110Z,1.37
2022-08-01T14:51:33.929Z,1.07
2022-08-01T14:54:01.791Z,1.40
2022-08-01T14:56:31.838Z,1.60
2022-08-01T14:58:59.719Z,2.50
2022-08-01T15:01:27.719Z,1.40
2022-08-01T15:03:57.013Z,1.27
2022-08-01T15:06:24.846Z,1.60
2022-08-01T15:08:52.746Z,1.50
2022-08-01T15:11:20.632Z,1.43
2022-08-01T15:14:09.061Z,1.30
2022-08-01T15:16:36.941Z,1.43
2022-08-01T15:19:06.574Z,1.30
2022-08-01T15:21:41.530Z,1.60
2022-08-01T15:24:11.129Z,1.70
2022-08-01T15:26:39.011Z,1.80
2022-08-01T15:29:07.547Z,1.60
2022-08-01T15:31:39.033Z,1.80
2022-08-01T15:34:09.077Z,1.30
2022-08-01T15:36:36.894Z,1.23
2022-08-01T15:39:09.927Z,1.77
2022-08-01T15:41:38.028Z,1.70
2022-08-01T15:44:06.237Z,1.70
2022-08-01T15:46:34.111Z,1.10
2022-08-01T15:49:04.573Z,1.10
2022-08-01T15:51:34.577Z,1.80
2022-08-01T15:54:03.544Z,1.30
2022-08-01T15:56:31.721Z,1.50
2022-08-01T15:59:00.056Z,1.33
2022-08-01T16:01:28.333Z,1.40
2022-08-01T16:03:56.963Z,1.27
2022-08-01T16:06:25.802Z,1.90
2022-08-01T16:08:55.215Z,1.30
2022-08-01T16:11:23.955Z,1.53
2022-08-01T16:13:51.767Z,1.70
2022-08-01T16:16:20.532Z,1.40
2022-08-01T16:18:53.817Z,1.27
2022-08-01T16:21:22.486Z,1.77
2022-08-01T16:23:50.321Z,1.30
2022-08-01T16:26:27.925Z,1.37
2022-08-01T16:28:57.880Z,1.50
2022-08-01T16:31:51.579Z,1.20
2022-08-01T16:34:15.219Z,1.33
2022-08-01T16:36:43.421Z,1.30
2022-08-01T16:39:11.525Z,1.23
2022-08-01T16:41:40.797Z,1.27
2022-08-01T16:44:08.696Z,1.13
2022-08-01T16:46:36.622Z,1.20
2022-08-01T16:49:06.484Z,1.10
2022-08-01T16:51:40.712Z,1.50
2022-08-01T16:54:25.949Z,1.60
2022-08-01T16:56:57.902Z,1.07
2022-08-01T16:59:41.223Z,1.20
2022-08-01T17:02:10.987Z,1.00
2022-08-01T17:04:39.116Z,1.40
2022-08-01T17:07:07.440Z,1.10
2022-08-01T17:09:38.647Z,1.10
2022-08-01T17:12:13.141Z,1.17
2022-08-01T17:14:49.908Z,1.20
2022-08-01T17:17:17.934Z,1.07
2022-08-01T17:19:45.931Z,1.10
2022-08-01T17:22:14.096Z,1.20
2022-08-01T17:24:42.051Z,1.23
2022-08-01T17:27:13.276Z,1.13
2022-08-01T17:29:44.150Z,1.20
2022-08-01T17:32:12.398Z,1.07
2022-08-01T17:34:40.208Z,1.20
2022-08-01T17:37:08.549Z,1.43
2022-08-01T17:39:39.341Z,1.20
2022-08-01T17:42:08.250Z,1.13
2022-08-01T17:44:37.658Z,2.30
2022-08-01T17:47:06.498Z,2.93
2022-08-01T17:49:53.788Z,1.40
2022-08-01T17:52:22.541Z,1.03
2022-08-01T17:54:50.495Z,1.33
2022-08-01T17:57:18.388Z,1.53
2022-08-01T17:59:47.602Z,1.20
2022-08-01T18:02:15.450Z,1.33
2022-08-01T18:04:44.247Z,1.40
2022-08-01T18:07:12.713Z,1.80
2022-08-01T18:09:44.199Z,1.80
2022-08-01T18:12:14.390Z,1.77
2022-08-01T18:14:43.920Z,1.60
2022-08-01T18:17:13.757Z,1.90
2022-08-01T18:19:41.621Z,1.60
2022-08-01T18:22:33.313Z,1.40
2022-08-01T18:25:04.459Z,1.20
2022-08-01T18:28:22.359Z,1.60
2022-08-01T18:30:23.129Z,2.10
2022-08-01T18:32:52.409Z,2.40
2022-08-01T18:35:20.339Z,1.30
2022-08-01T18:37:55.384Z,1.70
2022-08-01T18:40:23.424Z,1.63
2022-08-01T18:42:51.382Z,2.43
2022-08-01T18:45:19.279Z,1.63
2022-08-01T18:47:48.266Z,2.70
2022-08-01T18:50:17.586Z,1.73
2022-08-01T18:52:45.472Z,1.40
2022-08-01T18:55:13.359Z,1.30
2022-08-01T18:57:42.752Z,1.43
2022-08-01T19:00:12.154Z,2.30
2022-08-01T19:02:41.635Z,1.90
2022-08-01T19:05:10.358Z,1.73
2022-08-01T19:08:05.463Z,1.80
2022-08-01T19:10:27.603Z,1.90
2022-08-01T19:12:55.712Z,1.67
2022-08-01T19:15:23.606Z,1.57
2022-08-01T19:17:51.416Z,1.53
2022-08-01T19:20:19.366Z,1.50
2022-08-01T19:22:48.481Z,1.80
2022-08-01T19:25:16.469Z,1.60
2022-08-01T19:27:47.902Z,1.80
2022-08-01T19:30:16.620Z,1.40
2022-08-01T19:32:45.796Z,1.80
2022-08-01T19:35:16.574Z,1.70
2022-08-01T19:37:46.799Z,1.47
2022-08-01T19:40:27.591Z,1.40
2022-08-01T19:42:57.445Z,2.00
2022-08-01T19:45:29.080Z,2.27
2022-08-01T19:47:58.020Z,1.30
2022-08-01T19:50:26.812Z,2.10
2022-08-01T19:52:57.253Z,1.63
2022-08-01T19:55:28.757Z,1.70
2022-08-01T19:58:24.402Z,1.97
2022-08-01T20:00:47.112Z,2.10
2022-08-01T20:03:18.171Z,1.90
2022-08-01T20:05:46.251Z,1.80
2022-08-01T20:08:15.734Z,1.70
2022-08-01T20:10:46.850Z,1.57
2022-08-01T20:13:15.678Z,1.60
2022-08-01T20:15:44.753Z,1.90
2022-08-01T20:18:13.004Z,1.90
2022-08-01T20:20:40.906Z,1.90
2022-08-01T20:23:18.140Z,1.37
2022-08-01T20:25:50.376Z,2.00
2022-08-01T20:28:23.982Z,1.93
2022-08-01T20:30:55.933Z,2.00
2022-08-01T20:33:23.924Z,1.67
2022-08-01T20:35:54.079Z,2.00
2022-08-01T20:38:23.942Z,2.20
2022-08-01T20:40:54.592Z,1.60
2022-08-01T20:43:23.477Z,1.93
2022-08-01T20:45:52.409Z,1.90
2022-08-01T20:48:21.126Z,1.70
2022-08-01T20:51:08.079Z,2.10
2022-08-01T20:53:40.651Z,2.13
2022-08-01T20:56:16.177Z,1.60
2022-08-01T20:59:06.219Z,1.80
2022-08-01T21:01:39.915Z,2.03
2022-08-01T21:04:24.057Z,1.77
2022-08-01T21:06:56.946Z,1.77
2022-08-01T21:09:25.953Z,2.37
2022-08-01T21:12:02.131Z,1.90
2022-08-01T21:14:38.553Z,1.67
2022-08-01T21:17:13.069Z,1.70
2022-08-01T21:19:45.152Z,1.60
2022-08-01T21:22:26.881Z,1.53
2022-08-01T21:25:00.954Z,2.00
2022-08-01T21:27:33.614Z,1.67
2022-08-01T21:30:04.474Z,1.83
2022-08-01T21:32:34.093Z,1.67
2022-08-01T21:35:02.859Z,1.87
2022-08-01T21:37:31.423Z,1.47
2022-08-01T21:40:02.680Z,1.47
2022-08-01T21:42:40.510Z,1.93
2022-08-01T21:45:10.496Z,1.60
2022-08-01T21:47:38.869Z,1.83
2022-08-01T21:50:09.303Z,1.73
2022-08-01T21:52:44.220Z,1.57
2022-08-01T21:55:22.418Z,1.70
2022-08-01T21:58:19.024Z,1.50
2022-08-01T22:00:53.105Z,1.40
2022-08-01T22:03:26.073Z,1.50
2022-08-01T22:05:55.362Z,1.10
2022-08-01T22:08:29.589Z,1.00
2022-08-01T22:11:00.615Z,1.20
2022-08-01T22:13:29.943Z,1.10
2022-08-01T22:15:58.872Z,1.53
2022-08-01T22:18:28.231Z,1.20
2022-08-01T22:20:56.520Z,1.20
2022-08-01T22:23:24.748Z,1.37
2022-08-01T22:25:53.810Z,1.30
2022-08-01T22:28:22.781Z,1.20
2022-08-01T22:30:54.518Z,1.10
2022-08-01T22:33:22.459Z,0.80
2022-08-01T22:35:52.532Z,1.10
2022-08-01T22:38:22.325Z,1.00
2022-08-01T22:40:52.465Z,1.20
2022-08-01T22:43:26.402Z,0.97
2022-08-01T22:46:09.626Z,0.90
2022-08-01T22:48:42.550Z,0.90
2022-08-01T22:51:21.503Z,0.90
2022-08-01T22:53:57.253Z,1.40
2022-08-01T22:56:25.174Z,1.47
2022-08-01T23:01:39.643Z,1.03
2022-08-01T23:04:12.141Z,1.30
2022-08-01T23:06:43.725Z,1.00
2022-08-01T23:09:12.873Z,1.47
2022-08-01T23:11:40.884Z,0.70
2022-08-01T23:14:09.742Z,1.10
2022-08-01T23:16:41.120Z,0.97
2022-08-01T23:19:11.332Z,1.03
2022-08-01T23:21:41.933Z,1.10
2022-08-01T23:24:10.652Z,0.87
2022-08-01T23:26:39.412Z,0.70
2022-08-01T23:29:08.674Z,1.27
2022-08-01T23:32:02.829Z,1.00
2022-08-01T23:34:25.785Z,1.07
2022-08-01T23:36:53.617Z,0.80
2022-08-01T23:39:21.507Z,1.70
2022-08-01T23:41:57.590Z,1.10
2022-08-01T23:44:27.257Z,1.00
2022-08-01T23:46:56.434Z,1.00
2022-08-01T23:49:24.660Z,1.10
2022-08-01T23:51:52.740Z,1.00
2022-08-01T23:54:21.151Z,1.10
2022-08-01T23:56:49.125Z,1.47
2022-08-01T23:59:17.034Z,0.97
